createdAt,value
2017-11-24T00:00:37.931Z,59.80
2017-11-24T00:01:42.997Z,59.70
2017-11-24T00:02:48.203Z,59.70
2017-11-24T00:03:53.358Z,59.80
2017-11-24T00:04:58.569Z,59.70
2017-11-24T00:06:04.571Z,59.80
2017-11-24T00:07:10.951Z,59.80
2017-11-24T00:08:16.206Z,59.70
2017-11-24T00:09:21.220Z,59.80
2017-11-24T00:10:26.488Z,59.80
2017-11-24T00:11:31.831Z,59.80
2017-11-24T00:12:37.291Z,59.70
2017-11-24T00:13:42.318Z,59.80
2017-11-24T00:14:47.395Z,59.70
2017-11-24T00:15:52.712Z,59.80
2017-11-24T00:16:58.080Z,59.80
2017-11-24T00:18:03.590Z,59.80
2017-11-24T00:19:09.079Z,59.80
2017-11-24T00:20:14.226Z,59.80
2017-11-24T00:21:19.258Z,59.80
2017-11-24T00:22:25.115Z,59.80
2017-11-24T00:23:30.142Z,59.70
2017-11-24T00:24:35.003Z,59.80
2017-11-24T00:25:39.784Z,59.80
2017-11-24T00:26:44.582Z,59.80
2017-11-24T00:27:49.629Z,59.80
2017-11-24T00:28:54.536Z,59.80
2017-11-24T00:29:59.628Z,59.80
2017-11-24T00:31:04.896Z,59.80
2017-11-24T00:32:09.834Z,59.80
2017-11-24T00:33:14.949Z,59.80
2017-11-24T00:34:19.766Z,59.80
2017-11-24T00:35:25.095Z,59.80
2017-11-24T00:36:30.361Z,59.80
2017-11-24T00:37:35.223Z,59.80
2017-11-24T00:38:39.874Z,59.90
2017-11-24T00:39:44.521Z,59.80
2017-11-24T00:40:49.361Z,59.80
2017-11-24T00:41:54.043Z,59.80
2017-11-24T00:42:58.768Z,59.90
2017-11-24T00:44:03.432Z,59.90
2017-11-24T00:45:08.111Z,59.90
2017-11-24T00:46:12.681Z,59.80
2017-11-24T00:47:17.236Z,59.90
2017-11-24T00:48:21.837Z,59.90
2017-11-24T00:49:26.482Z,59.90
2017-11-24T00:50:31.189Z,59.90
2017-11-24T00:51:35.723Z,59.90
2017-11-24T00:52:40.332Z,59.90
2017-11-24T00:53:44.987Z,59.90
2017-11-24T00:54:49.494Z,59.90
2017-11-24T00:55:54.301Z,59.90
2017-11-24T00:56:59.051Z,59.90
2017-11-24T00:58:03.733Z,60.00
2017-11-24T00:59:08.501Z,59.90
2017-11-24T01:00:13.188Z,60.00
2017-11-24T01:01:17.716Z,59.90
2017-11-24T01:02:22.531Z,60.60
2017-11-24T01:03:26.997Z,60.00
2017-11-24T01:04:31.809Z,60.00
2017-11-24T01:05:36.456Z,60.00
2017-11-24T01:06:41.300Z,60.00
2017-11-24T01:07:46.179Z,60.00
2017-11-24T01:08:50.842Z,60.00
2017-11-24T01:09:55.752Z,60.00
2017-11-24T01:11:00.298Z,60.10
2017-11-24T01:12:05.049Z,60.00
2017-11-24T01:13:09.856Z,60.00
2017-11-24T01:14:14.502Z,60.00
2017-11-24T01:15:19.188Z,60.00
2017-11-24T01:16:23.965Z,60.00
2017-11-24T01:17:28.607Z,60.00
2017-11-24T01:18:33.297Z,60.00
2017-11-24T01:19:38.121Z,60.00
2017-11-24T01:20:42.690Z,60.00
2017-11-24T01:21:47.341Z,60.00
2017-11-24T01:22:51.998Z,60.00
2017-11-24T01:23:56.714Z,60.00
2017-11-24T01:25:01.405Z,60.00
2017-11-24T01:26:06.107Z,60.00
2017-11-24T01:27:11.032Z,60.00
2017-11-24T01:28:15.745Z,60.00
2017-11-24T01:29:20.398Z,60.00
2017-11-24T01:30:25.147Z,60.00
2017-11-24T01:31:29.867Z,60.00
2017-11-24T01:32:34.519Z,60.00
2017-11-24T01:33:39.070Z,60.00
2017-11-24T01:34:43.809Z,60.00
2017-11-24T01:35:48.485Z,60.00
2017-11-24T01:36:53.229Z,60.00
2017-11-24T01:37:57.940Z,60.00
2017-11-24T01:39:02.471Z,60.00
2017-11-24T01:40:07.128Z,60.00
2017-11-24T01:41:11.734Z,60.00
2017-11-24T01:42:16.259Z,59.90
2017-11-24T01:43:20.759Z,59.90
2017-11-24T01:44:25.606Z,59.90
2017-11-24T01:45:30.179Z,60.00
2017-11-24T01:46:34.903Z,60.00
2017-11-24T01:47:39.469Z,60.00
2017-11-24T01:48:44.121Z,60.00
2017-11-24T01:49:48.699Z,60.00
2017-11-24T01:50:53.482Z,59.90
2017-11-24T01:51:58.059Z,60.00
2017-11-24T01:53:02.637Z,60.00
2017-11-24T01:54:07.310Z,59.90
2017-11-24T01:55:12.219Z,60.00
2017-11-24T01:56:17.003Z,59.90
2017-11-24T01:57:21.749Z,60.00
2017-11-24T01:58:26.660Z,59.90
2017-11-24T01:59:31.410Z,59.90
2017-11-24T02:00:36.143Z,59.90
2017-11-24T02:01:40.766Z,59.90
2017-11-24T02:02:45.338Z,59.90
2017-11-24T02:03:57.446Z,59.90
2017-11-24T02:05:03.661Z,59.90
2017-11-24T02:06:08.380Z,59.90
2017-11-24T02:07:12.961Z,59.90
2017-11-24T02:08:17.618Z,59.90
2017-11-24T02:09:22.456Z,59.90
2017-11-24T02:10:27.085Z,59.90
2017-11-24T02:11:31.656Z,59.90
2017-11-24T02:12:36.295Z,59.90
2017-11-24T02:13:41.031Z,59.90
2017-11-24T02:14:45.720Z,59.90
2017-11-24T02:15:50.316Z,59.90
2017-11-24T02:16:55.110Z,59.90
2017-11-24T02:17:59.872Z,59.90
2017-11-24T02:19:04.532Z,59.90
2017-11-24T02:20:09.243Z,59.90
2017-11-24T02:21:13.910Z,59.90
2017-11-24T02:22:18.719Z,59.90
2017-11-24T02:23:23.557Z,59.90
2017-11-24T02:24:28.056Z,59.90
2017-11-24T02:25:32.915Z,59.90
2017-11-24T02:26:37.615Z,59.90
2017-11-24T02:27:42.198Z,59.90
2017-11-24T02:28:46.755Z,59.90
2017-11-24T02:29:51.423Z,59.90
2017-11-24T02:30:56.191Z,59.90
2017-11-24T02:32:01.185Z,59.80
2017-11-24T02:33:06.040Z,59.90
2017-11-24T02:34:10.649Z,59.90
2017-11-24T02:35:15.314Z,59.90
2017-11-24T02:36:20.017Z,59.90
2017-11-24T02:37:24.592Z,59.90
2017-11-24T02:38:29.225Z,59.90
2017-11-24T02:39:34.552Z,59.90
2017-11-24T02:40:39.168Z,59.90
2017-11-24T02:41:43.699Z,59.80
2017-11-24T02:42:48.416Z,59.80
2017-11-24T02:43:53.114Z,59.90
2017-11-24T02:44:57.945Z,59.90
2017-11-24T02:46:02.804Z,59.90
2017-11-24T02:47:07.654Z,59.80
2017-11-24T02:48:12.344Z,59.80
2017-11-24T02:49:17.006Z,59.80
2017-11-24T02:50:21.543Z,59.80
2017-11-24T02:51:26.191Z,59.80
2017-11-24T02:52:30.950Z,59.80
2017-11-24T02:53:35.658Z,59.80
2017-11-24T02:54:40.497Z,59.80
2017-11-24T02:55:45.187Z,59.90
2017-11-24T02:56:49.808Z,59.80
2017-11-24T02:57:54.628Z,59.80
2017-11-24T02:58:59.158Z,59.80
2017-11-24T03:00:03.844Z,59.80
2017-11-24T03:01:08.664Z,59.80
2017-11-24T03:02:13.204Z,59.80
2017-11-24T03:03:17.981Z,59.80
2017-11-24T03:04:22.956Z,59.80
2017-11-24T03:05:27.629Z,59.80
2017-11-24T03:06:32.449Z,59.80
2017-11-24T03:07:37.069Z,59.80
2017-11-24T03:08:41.781Z,59.70
2017-11-24T03:09:46.519Z,59.70
2017-11-24T03:10:51.264Z,59.80
2017-11-24T03:11:55.806Z,59.70
2017-11-24T03:13:00.468Z,59.70
2017-11-24T03:14:05.020Z,59.70
2017-11-24T03:15:09.643Z,59.70
2017-11-24T03:16:14.281Z,59.80
2017-11-24T03:17:19.153Z,59.80
2017-11-24T03:18:24.034Z,59.80
2017-11-24T03:19:28.757Z,59.80
2017-11-24T03:20:33.603Z,59.80
2017-11-24T03:21:38.374Z,59.80
2017-11-24T03:22:43.076Z,59.70
2017-11-24T03:23:47.904Z,59.70
2017-11-24T03:24:52.431Z,59.80
2017-11-24T03:25:57.054Z,59.70
2017-11-24T03:27:01.811Z,59.70
2017-11-24T03:28:06.543Z,59.70
2017-11-24T03:29:11.758Z,59.80
2017-11-24T03:30:16.640Z,59.80
2017-11-24T03:31:21.361Z,59.70
2017-11-24T03:32:26.003Z,59.80
2017-11-24T03:33:30.932Z,59.80
2017-11-24T03:34:35.692Z,59.80
2017-11-24T03:35:40.256Z,59.80
2017-11-24T03:36:45.200Z,59.70
2017-11-24T03:37:49.735Z,59.70
2017-11-24T03:38:54.268Z,59.70
2017-11-24T03:39:59.037Z,59.70
2017-11-24T03:41:03.681Z,59.70
2017-11-24T03:42:08.461Z,59.80
2017-11-24T03:43:13.258Z,59.80
2017-11-24T03:44:18.039Z,59.80
2017-11-24T03:45:22.879Z,59.80
2017-11-24T03:46:27.549Z,59.80
2017-11-24T03:47:32.265Z,59.80
2017-11-24T03:48:36.837Z,59.80
2017-11-24T03:49:41.452Z,59.80
2017-11-24T03:50:46.281Z,59.80
2017-11-24T03:51:51.125Z,59.80
2017-11-24T03:52:55.957Z,59.80
2017-11-24T03:54:00.652Z,59.80
2017-11-24T03:55:05.610Z,59.80
2017-11-24T03:56:10.414Z,59.80
2017-11-24T03:57:15.106Z,59.80
2017-11-24T03:58:19.729Z,59.80
2017-11-24T03:59:24.431Z,59.80
2017-11-24T04:00:29.225Z,59.80
2017-11-24T04:01:33.974Z,59.80
2017-11-24T04:02:38.747Z,59.80
2017-11-24T04:03:43.248Z,59.80
2017-11-24T04:04:47.978Z,59.70
2017-11-24T04:05:52.729Z,59.70
2017-11-24T04:06:57.640Z,59.70
2017-11-24T04:08:02.128Z,59.70
2017-11-24T04:09:06.862Z,59.70
2017-11-24T04:10:11.538Z,59.70
2017-11-24T04:11:16.178Z,60.40
2017-11-24T04:12:20.935Z,59.70
2017-11-24T04:13:25.867Z,59.70
2017-11-24T04:14:30.423Z,59.70
2017-11-24T04:15:34.963Z,59.70
2017-11-24T04:16:39.521Z,59.70
2017-11-24T04:17:44.282Z,59.70
2017-11-24T04:18:48.824Z,59.70
2017-11-24T04:19:53.670Z,59.70
2017-11-24T04:20:58.323Z,59.70
2017-11-24T04:22:03.009Z,59.70
2017-11-24T04:23:07.837Z,59.70
2017-11-24T04:24:12.494Z,59.70
2017-11-24T04:25:17.315Z,59.70
2017-11-24T04:26:21.870Z,59.70
2017-11-24T04:27:26.393Z,59.70
2017-11-24T04:28:31.081Z,59.60
2017-11-24T04:29:36.493Z,59.70
2017-11-24T04:30:41.016Z,59.70
2017-11-24T04:31:45.674Z,59.70
2017-11-24T04:32:50.542Z,59.70
2017-11-24T04:33:55.913Z,59.70
2017-11-24T04:35:01.612Z,59.80
2017-11-24T04:36:06.697Z,59.70
2017-11-24T04:37:12.124Z,59.70
2017-11-24T04:38:17.185Z,59.70
2017-11-24T04:39:22.104Z,59.70
2017-11-24T04:40:27.001Z,60.30
2017-11-24T04:41:32.484Z,59.60
2017-11-24T04:42:37.538Z,59.60
2017-11-24T04:43:42.397Z,59.60
2017-11-24T04:44:47.286Z,60.30
2017-11-24T04:45:52.366Z,59.60
2017-11-24T04:46:57.453Z,59.60
2017-11-24T04:48:02.660Z,59.60
2017-11-24T04:49:07.746Z,59.60
2017-11-24T04:50:13.025Z,59.60
2017-11-24T04:51:18.175Z,59.60
2017-11-24T04:52:24.544Z,59.60
2017-11-24T04:53:29.433Z,59.70
2017-11-24T04:54:34.307Z,59.60
2017-11-24T04:55:39.337Z,59.60
2017-11-24T04:56:44.111Z,59.60
2017-11-24T04:57:49.291Z,59.60
2017-11-24T04:58:54.311Z,59.50
2017-11-24T04:59:59.160Z,59.50
2017-11-24T05:01:03.843Z,59.60
2017-11-24T05:02:08.853Z,59.60
2017-11-24T05:03:13.981Z,59.60
2017-11-24T05:04:18.975Z,59.60
2017-11-24T05:05:23.811Z,59.60
2017-11-24T05:06:29.099Z,59.60
2017-11-24T05:07:34.482Z,59.60
2017-11-24T05:08:39.756Z,59.50
2017-11-24T05:09:44.450Z,59.60
2017-11-24T05:10:49.764Z,59.50
2017-11-24T05:11:54.810Z,59.50
2017-11-24T05:12:59.921Z,59.60
2017-11-24T05:14:05.341Z,59.60
2017-11-24T05:15:10.635Z,59.60
2017-11-24T05:16:15.579Z,59.60
2017-11-24T05:17:20.429Z,59.60
2017-11-24T05:18:25.616Z,59.60
2017-11-24T05:19:30.525Z,59.60
2017-11-24T05:20:35.495Z,59.60
2017-11-24T05:21:40.492Z,59.60
2017-11-24T05:22:45.516Z,59.60
2017-11-24T05:23:50.582Z,59.60
2017-11-24T05:24:55.661Z,59.60
2017-11-24T05:26:01.493Z,59.60
2017-11-24T05:27:06.736Z,59.60
2017-11-24T05:28:11.878Z,59.60
2017-11-24T05:29:16.843Z,59.60
2017-11-24T05:30:24.090Z,59.60
2017-11-24T05:31:28.896Z,59.70
2017-11-24T05:32:33.911Z,59.60
2017-11-24T05:33:39.121Z,59.60
2017-11-24T05:34:44.472Z,59.60
2017-11-24T05:35:49.354Z,59.60
2017-11-24T05:36:54.430Z,59.60
2017-11-24T05:37:59.365Z,59.50
2017-11-24T05:39:04.576Z,59.50
2017-11-24T05:40:09.789Z,59.60
2017-11-24T05:41:14.931Z,59.60
2017-11-24T05:42:21.297Z,59.60
2017-11-24T05:43:26.210Z,59.60
2017-11-24T05:44:32.547Z,59.50
2017-11-24T05:45:37.564Z,59.50
2017-11-24T05:46:42.625Z,59.60
2017-11-24T05:47:47.772Z,59.50
2017-11-24T05:48:52.887Z,59.60
2017-11-24T05:49:57.756Z,59.60
2017-11-24T05:51:02.918Z,59.50
2017-11-24T05:52:07.776Z,59.60
2017-11-24T05:53:12.798Z,59.50
2017-11-24T05:54:17.653Z,58.70
2017-11-24T05:55:22.692Z,56.90
2017-11-24T05:56:27.842Z,55.80
2017-11-24T05:57:32.831Z,55.30
2017-11-24T05:58:37.979Z,54.70
2017-11-24T05:59:43.730Z,54.20
2017-11-24T06:00:48.624Z,53.90
2017-11-24T06:01:53.975Z,53.50
2017-11-24T06:02:59.166Z,53.70
2017-11-24T06:04:04.263Z,54.80
2017-11-24T06:05:09.424Z,55.40
2017-11-24T06:06:14.597Z,55.00
2017-11-24T06:07:19.670Z,54.60
2017-11-24T06:08:24.921Z,54.60
2017-11-24T06:09:30.061Z,54.70
2017-11-24T06:10:34.993Z,54.80
2017-11-24T06:11:40.046Z,55.00
2017-11-24T06:12:45.565Z,55.00
2017-11-24T06:13:50.530Z,55.10
2017-11-24T06:14:55.618Z,55.10
2017-11-24T06:16:00.795Z,55.20
2017-11-24T06:17:05.811Z,55.30
2017-11-24T06:18:13.432Z,55.30
2017-11-24T06:19:18.866Z,55.30
2017-11-24T06:20:23.943Z,55.50
2017-11-24T06:21:29.089Z,55.80
2017-11-24T06:22:33.851Z,56.10
2017-11-24T06:23:38.598Z,56.30
2017-11-24T06:24:43.598Z,56.20
2017-11-24T06:25:48.632Z,56.20
2017-11-24T06:26:53.443Z,56.20
2017-11-24T06:27:58.426Z,56.20
2017-11-24T06:29:03.317Z,56.20
2017-11-24T06:30:08.409Z,56.20
2017-11-24T06:31:13.610Z,56.20
2017-11-24T06:32:18.654Z,56.10
2017-11-24T06:33:23.606Z,56.20
2017-11-24T06:34:29.118Z,56.20
2017-11-24T06:35:33.972Z,56.20
2017-11-24T06:36:40.196Z,56.10
2017-11-24T06:37:45.537Z,56.10
2017-11-24T06:38:50.601Z,56.20
2017-11-24T06:39:55.726Z,56.20
2017-11-24T06:41:00.765Z,55.40
2017-11-24T06:42:06.572Z,54.80
2017-11-24T06:43:12.228Z,54.40
2017-11-24T06:44:19.978Z,54.10
2017-11-24T06:45:25.260Z,53.80
2017-11-24T06:46:30.606Z,53.70
2017-11-24T06:47:35.507Z,53.70
2017-11-24T06:48:40.601Z,53.80
2017-11-24T06:49:45.733Z,54.00
2017-11-24T06:50:50.947Z,54.20
2017-11-24T06:51:55.949Z,54.30
2017-11-24T06:53:01.480Z,54.40
2017-11-24T06:54:06.738Z,54.60
2017-11-24T06:55:11.679Z,54.70
2017-11-24T06:56:16.662Z,54.70
2017-11-24T06:57:21.525Z,54.90
2017-11-24T06:58:26.842Z,55.00
2017-11-24T06:59:31.947Z,55.10
2017-11-24T07:00:37.589Z,55.20
2017-11-24T07:01:43.399Z,55.40
2017-11-24T07:02:48.575Z,55.60
2017-11-24T07:03:54.073Z,55.70
2017-11-24T07:04:59.088Z,55.90
2017-11-24T07:06:03.971Z,55.80
2017-11-24T07:07:08.912Z,55.70
2017-11-24T07:08:13.949Z,55.70
2017-11-24T07:09:19.203Z,55.60
2017-11-24T07:10:24.067Z,55.70
2017-11-24T07:11:29.057Z,55.80
2017-11-24T07:12:34.289Z,55.80
2017-11-24T07:13:39.332Z,55.70
2017-11-24T07:14:44.369Z,55.70
2017-11-24T07:15:49.387Z,55.80
2017-11-24T07:16:54.479Z,55.60
2017-11-24T07:17:59.169Z,55.80
2017-11-24T07:19:05.482Z,55.90
2017-11-24T07:20:10.604Z,55.90
2017-11-24T07:21:15.680Z,56.50
2017-11-24T07:22:21.113Z,56.40
2017-11-24T07:23:26.055Z,56.20
2017-11-24T07:24:30.965Z,56.30
2017-11-24T07:25:36.098Z,56.30
2017-11-24T07:26:41.305Z,56.20
2017-11-24T07:27:46.353Z,56.20
2017-11-24T07:28:51.773Z,56.20
2017-11-24T07:29:56.561Z,56.40
2017-11-24T07:31:01.937Z,56.40
2017-11-24T07:32:06.837Z,56.40
2017-11-24T07:33:11.574Z,56.40
2017-11-24T07:34:16.434Z,56.50
2017-11-24T07:35:21.521Z,56.50
2017-11-24T07:36:27.432Z,56.60
2017-11-24T07:37:32.439Z,56.70
2017-11-24T07:38:37.714Z,56.80
2017-11-24T07:39:43.340Z,56.80
2017-11-24T07:40:48.185Z,57.00
2017-11-24T07:41:53.009Z,57.00
2017-11-24T07:42:57.794Z,57.00
2017-11-24T07:44:03.657Z,57.00
2017-11-24T07:45:08.488Z,56.90
2017-11-24T07:46:13.559Z,57.00
2017-11-24T07:47:18.347Z,57.00
2017-11-24T07:48:23.249Z,57.10
2017-11-24T07:49:28.312Z,57.00
2017-11-24T07:50:33.289Z,57.10
2017-11-24T07:51:38.099Z,57.10
2017-11-24T07:52:43.081Z,57.10
2017-11-24T07:53:47.972Z,57.20
2017-11-24T07:54:52.796Z,57.30
2017-11-24T07:55:57.594Z,57.30
2017-11-24T07:57:02.425Z,57.40
2017-11-24T07:58:07.271Z,57.40
2017-11-24T07:59:12.188Z,57.40
2017-11-24T08:00:16.953Z,57.40
2017-11-24T08:01:21.808Z,57.30
2017-11-24T08:02:26.580Z,57.40
2017-11-24T08:03:31.258Z,57.40
2017-11-24T08:04:35.993Z,57.40
2017-11-24T08:05:41.071Z,57.50
2017-11-24T08:06:46.075Z,57.50
2017-11-24T08:07:51.253Z,57.40
2017-11-24T08:08:56.235Z,57.30
2017-11-24T08:10:01.181Z,57.50
2017-11-24T08:11:06.130Z,57.50
2017-11-24T08:12:11.036Z,57.40
2017-11-24T08:13:15.786Z,57.40
2017-11-24T08:14:20.473Z,57.40
2017-11-24T08:15:25.159Z,57.40
2017-11-24T08:16:29.968Z,57.40
2017-11-24T08:17:34.604Z,58.00
2017-11-24T08:18:39.354Z,57.30
2017-11-24T08:19:44.385Z,57.40
2017-11-24T08:20:49.439Z,57.40
2017-11-24T08:21:54.273Z,57.30
2017-11-24T08:22:59.069Z,57.30
2017-11-24T08:24:03.796Z,57.40
2017-11-24T08:25:08.551Z,57.30
2017-11-24T08:26:13.346Z,57.30
2017-11-24T08:27:18.184Z,57.40
2017-11-24T08:28:22.869Z,57.30
2017-11-24T08:29:27.540Z,57.30
2017-11-24T08:30:32.246Z,57.40
2017-11-24T08:31:37.223Z,57.40
2017-11-24T08:32:41.997Z,57.40
2017-11-24T08:33:46.728Z,57.40
2017-11-24T08:34:51.628Z,57.50
2017-11-24T08:35:56.433Z,57.40
2017-11-24T08:37:01.222Z,57.50
2017-11-24T08:38:05.927Z,57.50
2017-11-24T08:39:10.824Z,57.50
2017-11-24T08:40:15.634Z,57.50
2017-11-24T08:41:20.468Z,57.40
2017-11-24T08:42:25.407Z,57.50
2017-11-24T08:43:30.342Z,57.50
2017-11-24T08:44:35.004Z,57.50
2017-11-24T08:45:39.678Z,57.40
2017-11-24T08:46:44.566Z,57.40
2017-11-24T08:47:49.366Z,57.40
2017-11-24T08:48:54.126Z,57.50
2017-11-24T08:49:58.895Z,57.50
2017-11-24T08:51:03.893Z,57.40
2017-11-24T08:52:08.588Z,57.40
2017-11-24T08:53:13.242Z,57.40
2017-11-24T08:54:17.959Z,57.50
2017-11-24T08:55:22.801Z,57.50
2017-11-24T08:56:27.700Z,57.60
2017-11-24T08:57:32.354Z,57.50
2017-11-24T08:58:37.275Z,57.60
2017-11-24T08:59:42.079Z,57.60
2017-11-24T09:00:47.228Z,57.60
2017-11-24T09:01:52.071Z,57.50
2017-11-24T09:02:56.795Z,57.60
2017-11-24T09:04:01.665Z,57.60
2017-11-24T09:05:06.352Z,57.60
2017-11-24T09:06:11.127Z,57.70
2017-11-24T09:07:16.068Z,57.70
2017-11-24T09:08:21.139Z,57.80
2017-11-24T09:09:25.868Z,58.10
2017-11-24T09:10:30.752Z,58.00
2017-11-24T09:11:35.722Z,58.10
2017-11-24T09:12:40.469Z,58.20
2017-11-24T09:13:45.247Z,58.30
2017-11-24T09:14:50.249Z,58.40
2017-11-24T09:15:54.970Z,58.30
2017-11-24T09:16:59.907Z,58.80
2017-11-24T09:18:04.750Z,58.90
2017-11-24T09:19:09.798Z,59.00
2017-11-24T09:20:14.663Z,58.70
2017-11-24T09:21:19.731Z,58.50
2017-11-24T09:22:24.531Z,58.60
2017-11-24T09:23:29.246Z,58.60
2017-11-24T09:24:34.425Z,58.60
2017-11-24T09:25:39.445Z,58.60
2017-11-24T09:26:44.111Z,58.70
2017-11-24T09:27:49.111Z,58.80
2017-11-24T09:28:53.977Z,58.80
2017-11-24T09:29:58.623Z,59.00
2017-11-24T09:31:03.474Z,59.00
2017-11-24T09:32:08.378Z,58.90
2017-11-24T09:33:13.109Z,59.60
2017-11-24T09:34:18.093Z,59.00
2017-11-24T09:35:22.837Z,59.00
2017-11-24T09:36:27.744Z,59.10
2017-11-24T09:37:32.582Z,59.10
2017-11-24T09:38:37.269Z,59.10
2017-11-24T09:39:42.215Z,59.10
2017-11-24T09:40:47.505Z,59.10
2017-11-24T09:41:52.324Z,59.10
2017-11-24T09:42:57.155Z,59.00
2017-11-24T09:44:02.178Z,59.00
2017-11-24T09:45:07.321Z,58.90
2017-11-24T09:46:12.045Z,59.60
2017-11-24T09:47:16.840Z,58.80
2017-11-24T09:48:21.714Z,58.90
2017-11-24T09:49:26.450Z,58.80
2017-11-24T09:50:31.261Z,58.80
2017-11-24T09:51:36.236Z,58.90
2017-11-24T09:52:41.211Z,59.00
2017-11-24T09:53:46.302Z,58.90
2017-11-24T09:54:51.765Z,58.90
2017-11-24T09:55:57.429Z,59.00
2017-11-24T09:57:02.791Z,58.90
2017-11-24T09:58:08.084Z,59.00
2017-11-24T09:59:13.077Z,59.40
2017-11-24T10:00:18.363Z,59.90
2017-11-24T10:01:23.780Z,60.60
2017-11-24T10:02:28.932Z,62.20
2017-11-24T10:03:33.899Z,62.10
2017-11-24T10:04:39.613Z,62.20
2017-11-24T10:05:44.978Z,62.20
2017-11-24T10:06:49.720Z,63.10
2017-11-24T10:07:54.677Z,62.50
2017-11-24T10:08:59.813Z,62.60
2017-11-24T10:10:05.329Z,62.60
2017-11-24T10:11:10.684Z,62.80
2017-11-24T10:12:15.946Z,62.70
2017-11-24T10:13:20.930Z,63.40
2017-11-24T10:14:26.297Z,62.80
2017-11-24T10:15:31.864Z,62.80
2017-11-24T10:16:37.062Z,62.80
2017-11-24T10:17:42.630Z,62.80
2017-11-24T10:18:47.805Z,62.70
2017-11-24T10:19:53.286Z,62.60
2017-11-24T10:20:58.544Z,62.60
2017-11-24T10:22:03.867Z,62.50
2017-11-24T10:23:08.999Z,62.50
2017-11-24T10:24:14.233Z,62.50
2017-11-24T10:25:19.067Z,62.40
2017-11-24T10:26:24.379Z,62.40
2017-11-24T10:27:29.879Z,62.50
2017-11-24T10:28:34.581Z,62.50
2017-11-24T10:29:39.974Z,62.40
2017-11-24T10:30:45.570Z,62.40
2017-11-24T10:31:50.716Z,62.30
2017-11-24T10:32:56.136Z,62.20
2017-11-24T10:34:01.725Z,62.00
2017-11-24T10:35:06.994Z,62.00
2017-11-24T10:36:12.212Z,62.00
2017-11-24T10:37:17.413Z,62.00
2017-11-24T10:38:22.416Z,62.00
2017-11-24T10:39:27.598Z,61.90
2017-11-24T10:40:32.722Z,62.00
2017-11-24T10:41:38.512Z,62.00
2017-11-24T10:42:43.584Z,62.00
2017-11-24T10:43:48.881Z,62.00
2017-11-24T10:44:54.221Z,62.00
2017-11-24T10:45:59.568Z,62.00
2017-11-24T10:47:04.822Z,62.00
2017-11-24T10:48:10.526Z,62.00
2017-11-24T10:49:15.945Z,61.90
2017-11-24T10:50:21.974Z,61.90
2017-11-24T10:51:27.391Z,61.90
2017-11-24T10:52:32.447Z,62.00
2017-11-24T10:53:37.661Z,62.00
2017-11-24T10:54:42.520Z,62.00
2017-11-24T10:55:47.543Z,62.00
2017-11-24T10:56:52.744Z,62.00
2017-11-24T10:57:58.014Z,61.80
2017-11-24T10:59:03.366Z,61.70
2017-11-24T11:00:10.160Z,61.60
2017-11-24T11:01:15.756Z,61.60
2017-11-24T11:02:20.737Z,61.50
2017-11-24T11:03:25.800Z,61.50
2017-11-24T11:04:30.824Z,61.30
2017-11-24T11:05:35.873Z,61.20
2017-11-24T11:06:40.859Z,61.10
2017-11-24T11:07:45.704Z,61.10
2017-11-24T11:08:50.488Z,61.00
2017-11-24T11:09:55.322Z,60.80
2017-11-24T11:11:00.168Z,60.70
2017-11-24T11:12:04.992Z,60.70
2017-11-24T11:13:09.855Z,60.60
2017-11-24T11:14:14.762Z,60.50
2017-11-24T11:15:19.981Z,60.40
2017-11-24T11:16:24.661Z,60.30
2017-11-24T11:17:29.530Z,60.30
2017-11-24T11:18:34.363Z,60.10
2017-11-24T11:19:39.285Z,60.00
2017-11-24T11:20:44.130Z,59.90
2017-11-24T11:21:49.071Z,59.80
2017-11-24T11:22:54.280Z,59.80
2017-11-24T11:23:59.505Z,59.70
2017-11-24T11:25:04.670Z,59.60
2017-11-24T11:26:09.637Z,59.60
2017-11-24T11:27:14.433Z,59.50
2017-11-24T11:28:19.326Z,59.50
2017-11-24T11:29:24.259Z,59.40
2017-11-24T11:30:29.058Z,59.40
2017-11-24T11:31:33.872Z,59.30
2017-11-24T11:32:38.628Z,59.30
2017-11-24T11:33:43.571Z,59.20
2017-11-24T11:34:48.682Z,59.20
2017-11-24T11:35:53.378Z,59.10
2017-11-24T11:36:58.134Z,59.00
2017-11-24T11:38:03.251Z,59.00
2017-11-24T11:39:08.121Z,58.90
2017-11-24T11:40:13.052Z,59.00
2017-11-24T11:41:17.960Z,58.90
2017-11-24T11:42:22.820Z,59.00
2017-11-24T11:43:28.204Z,58.80
2017-11-24T11:44:33.275Z,58.80
2017-11-24T11:45:38.475Z,58.80
2017-11-24T11:46:43.608Z,58.80
2017-11-24T11:47:48.595Z,58.80
2017-11-24T11:48:53.401Z,58.80
2017-11-24T11:49:58.075Z,58.70
2017-11-24T11:51:03.048Z,58.70
2017-11-24T11:52:08.223Z,58.70
2017-11-24T11:53:12.882Z,58.60
2017-11-24T11:54:17.743Z,58.60
2017-11-24T11:55:22.762Z,58.60
2017-11-24T11:56:27.529Z,58.70
2017-11-24T11:57:32.488Z,58.60
2017-11-24T11:58:37.295Z,58.60
2017-11-24T11:59:42.382Z,58.60
2017-11-24T12:00:47.293Z,58.60
2017-11-24T12:01:52.245Z,58.60
2017-11-24T12:02:57.809Z,58.60
2017-11-24T12:04:02.541Z,58.50
2017-11-24T12:05:07.397Z,58.50
2017-11-24T12:06:12.268Z,58.60
2017-11-24T12:07:17.135Z,58.50
2017-11-24T12:08:22.032Z,58.40
2017-11-24T12:09:26.915Z,58.40
2017-11-24T12:10:31.839Z,58.40
2017-11-24T12:11:36.677Z,58.40
2017-11-24T12:12:41.724Z,58.40
2017-11-24T12:13:46.605Z,58.40
2017-11-24T12:14:51.538Z,58.40
2017-11-24T12:15:56.457Z,58.40
2017-11-24T12:17:01.210Z,58.40
2017-11-24T12:18:06.164Z,58.30
2017-11-24T12:19:11.024Z,58.40
2017-11-24T12:20:15.879Z,58.30
2017-11-24T12:21:20.734Z,58.30
2017-11-24T12:22:26.807Z,58.30
2017-11-24T12:23:31.782Z,58.30
2017-11-24T12:24:36.978Z,58.20
2017-11-24T12:25:42.801Z,58.60
2017-11-24T12:26:48.137Z,58.90
2017-11-24T12:27:53.375Z,59.00
2017-11-24T12:28:58.524Z,59.20
2017-11-24T12:30:03.725Z,59.00
2017-11-24T12:31:08.981Z,59.10
2017-11-24T12:32:14.137Z,59.20
2017-11-24T12:33:22.048Z,59.40
2017-11-24T12:34:27.263Z,59.50
2017-11-24T12:35:33.266Z,59.70
2017-11-24T12:36:38.723Z,59.80
2017-11-24T12:37:44.546Z,59.80
2017-11-24T12:38:49.985Z,59.70
2017-11-24T12:39:54.954Z,59.60
2017-11-24T12:41:03.503Z,59.50
2017-11-24T12:42:08.866Z,59.50
2017-11-24T12:43:14.180Z,59.40
2017-11-24T12:44:19.319Z,59.50
2017-11-24T12:45:24.404Z,59.40
2017-11-24T12:46:29.546Z,59.40
2017-11-24T12:47:34.849Z,59.30
2017-11-24T12:48:40.029Z,59.30
2017-11-24T12:49:45.127Z,59.20
2017-11-24T12:50:50.561Z,59.10
2017-11-24T12:51:55.804Z,59.00
2017-11-24T12:53:01.436Z,59.60
2017-11-24T12:54:06.688Z,58.80
2017-11-24T12:55:11.435Z,58.80
2017-11-24T12:56:16.758Z,58.70
2017-11-24T12:57:22.070Z,58.60
2017-11-24T12:58:27.503Z,58.50
2017-11-24T12:59:32.923Z,58.50
2017-11-24T13:00:38.573Z,58.40
2017-11-24T13:01:44.227Z,58.40
2017-11-24T13:02:49.724Z,58.40
2017-11-24T13:03:55.202Z,58.30
2017-11-24T13:05:00.825Z,58.20
2017-11-24T13:06:07.122Z,58.10
2017-11-24T13:07:12.365Z,58.20
2017-11-24T13:08:17.549Z,58.10
2017-11-24T13:09:23.012Z,58.00
2017-11-24T13:10:28.362Z,58.00
2017-11-24T13:11:33.388Z,58.00
2017-11-24T13:12:38.779Z,57.90
2017-11-24T13:13:44.062Z,57.90
2017-11-24T13:14:50.635Z,57.80
2017-11-24T13:15:55.878Z,57.80
2017-11-24T13:17:01.224Z,57.70
2017-11-24T13:18:06.715Z,57.80
2017-11-24T13:19:12.096Z,57.70
2017-11-24T13:20:17.793Z,57.70
2017-11-24T13:21:23.143Z,57.70
2017-11-24T13:22:28.270Z,57.70
2017-11-24T13:23:33.137Z,57.70
2017-11-24T13:24:37.988Z,57.80
2017-11-24T13:25:43.358Z,57.90
2017-11-24T13:26:48.749Z,58.30
2017-11-24T13:27:54.078Z,58.40
2017-11-24T13:28:59.365Z,58.50
2017-11-24T13:30:04.766Z,58.50
2017-11-24T13:31:10.466Z,58.60
2017-11-24T13:32:15.758Z,58.60
2017-11-24T13:33:22.480Z,58.60
2017-11-24T13:34:27.449Z,58.60
2017-11-24T13:35:34.780Z,58.70
2017-11-24T13:36:40.382Z,58.60
2017-11-24T13:37:45.680Z,58.60
2017-11-24T13:38:51.012Z,58.60
2017-11-24T13:39:56.746Z,58.60
2017-11-24T13:41:02.479Z,58.60
2017-11-24T13:42:07.885Z,58.50
2017-11-24T13:43:13.842Z,58.50
2017-11-24T13:44:19.079Z,58.50
2017-11-24T13:45:30.636Z,58.40
2017-11-24T13:46:47.598Z,58.30
2017-11-24T13:47:53.905Z,58.30
2017-11-24T13:48:59.382Z,58.20
2017-11-24T13:50:04.755Z,58.10
2017-11-24T13:51:10.043Z,57.90
2017-11-24T13:52:16.479Z,57.90
2017-11-24T13:53:21.681Z,57.90
2017-11-24T13:54:26.794Z,57.70
2017-11-24T13:55:31.687Z,57.60
2017-11-24T13:56:36.974Z,57.80
2017-11-24T13:57:42.704Z,57.80